sensor_id;sensor_type;location;lat;lon;timestamp;pressure;altitude;pressure_sealevel;temperature;humidity
40384;BME280;26097;42.366;23.818;2023-08-30T00:02:45;93165.56;;;15.64;100.00
40384;BME280;26097;42.366;23.818;2023-08-30T00:05:45;93168.97;;;15.73;100.00
40384;BME280;26097;42.366;23.818;2023-08-30T00:08:44;93170.53;;;15.91;100.00
40384;BME280;26097;42.366;23.818;2023-08-30T00:11:44;93169.16;;;16.03;100.00
40384;BME280;26097;42.366;23.818;2023-08-30T00:14:43;93165.59;;;16.27;100.00
40384;BME280;26097;42.366;23.818;2023-08-30T00:17:42;93155.19;;;16.34;100.00
40384;BME280;26097;42.366;23.818;2023-08-30T00:20:42;93157.22;;;16.24;100.00
40384;BME280;26097;42.366;23.818;2023-08-30T00:23:42;93156.28;;;16.17;100.00
40384;BME280;26097;42.366;23.818;2023-08-30T00:26:41;93159.94;;;16.07;100.00
40384;BME280;26097;42.366;23.818;2023-08-30T00:29:40;93157.53;;;15.97;100.00
40384;BME280;26097;42.366;23.818;2023-08-30T00:32:40;93148.84;;;15.97;100.00
40384;BME280;26097;42.366;23.818;2023-08-30T00:35:39;93152.47;;;15.96;100.00
40384;BME280;26097;42.366;23.818;2023-08-30T00:38:39;93149.50;;;15.91;100.00
40384;BME280;26097;42.366;23.818;2023-08-30T00:41:39;93150.00;;;15.94;100.00
40384;BME280;26097;42.366;23.818;2023-08-30T00:44:38;93157.31;;;16.07;100.00
40384;BME280;26097;42.366;23.818;2023-08-30T00:47:38;93159.47;;;16.04;100.00
40384;BME280;26097;42.366;23.818;2023-08-30T00:50:37;93162.28;;;16.02;100.00
40384;BME280;26097;42.366;23.818;2023-08-30T00:53:37;93168.16;;;16.12;100.00
40384;BME280;26097;42.366;23.818;2023-08-30T00:56:37;93171.06;;;16.18;100.00
40384;BME280;26097;42.366;23.818;2023-08-30T00:59:36;93169.38;;;16.25;100.00
40384;BME280;26097;42.366;23.818;2023-08-30T01:02:36;93169.97;;;16.35;100.00
40384;BME280;26097;42.366;23.818;2023-08-30T01:05:36;93169.78;;;16.37;100.00
40384;BME280;26097;42.366;23.818;2023-08-30T01:08:36;93179.03;;;16.56;100.00
40384;BME280;26097;42.366;23.818;2023-08-30T01:14:43;93185.94;;;16.80;100.00
40384;BME280;26097;42.366;23.818;2023-08-30T01:17:43;93195.31;;;16.98;100.00
40384;BME280;26097;42.366;23.818;2023-08-30T01:20:44;93197.06;;;17.06;100.00
40384;BME280;26097;42.366;23.818;2023-08-30T01:23:56;93202.53;;;17.04;100.00
40384;BME280;26097;42.366;23.818;2023-08-30T01:27:08;93195.84;;;16.93;100.00
40384;BME280;26097;42.366;23.818;2023-08-30T01:30:08;93200.00;;;16.88;100.00
40384;BME280;26097;42.366;23.818;2023-08-30T01:33:09;93206.63;;;16.83;100.00
40384;BME280;26097;42.366;23.818;2023-08-30T01:36:10;93202.16;;;16.84;100.00
40384;BME280;26097;42.366;23.818;2023-08-30T01:39:11;93202.25;;;16.76;100.00
40384;BME280;26097;42.366;23.818;2023-08-30T01:42:12;93201.75;;;16.72;100.00
40384;BME280;26097;42.366;23.818;2023-08-30T01:45:14;93205.91;;;16.66;100.00
40384;BME280;26097;42.366;23.818;2023-08-30T01:48:15;93199.44;;;16.54;100.00
40384;BME280;26097;42.366;23.818;2023-08-30T01:51:16;93203.59;;;16.48;100.00
40384;BME280;26097;42.366;23.818;2023-08-30T01:54:17;93203.63;;;16.40;100.00
40384;BME280;26097;42.366;23.818;2023-08-30T01:57:17;93207.44;;;16.37;100.00
40384;BME280;26097;42.366;23.818;2023-08-30T02:00:17;93203.38;;;16.26;100.00
40384;BME280;26097;42.366;23.818;2023-08-30T02:03:16;93200.13;;;16.16;100.00
40384;BME280;26097;42.366;23.818;2023-08-30T02:06:25;93202.00;;;16.07;100.00
40384;BME280;26097;42.366;23.818;2023-08-30T02:10:09;93191.97;;;16.11;100.00
40384;BME280;26097;42.366;23.818;2023-08-30T02:13:10;93187.41;;;16.05;100.00
40384;BME280;26097;42.366;23.818;2023-08-30T02:16:13;93193.00;;;16.02;100.00
40384;BME280;26097;42.366;23.818;2023-08-30T02:19:13;93195.44;;;16.03;100.00
40384;BME280;26097;42.366;23.818;2023-08-30T02:22:16;93196.81;;;15.91;100.00
40384;BME280;26097;42.366;23.818;2023-08-30T02:25:15;93197.16;;;15.79;100.00
40384;BME280;26097;42.366;23.818;2023-08-30T02:28:14;93208.19;;;15.75;100.00
40384;BME280;26097;42.366;23.818;2023-08-30T02:31:14;93207.06;;;15.69;100.00
40384;BME280;26097;42.366;23.818;2023-08-30T02:34:13;93210.84;;;15.66;100.00
40384;BME280;26097;42.366;23.818;2023-08-30T02:37:12;93209.03;;;15.67;100.00
40384;BME280;26097;42.366;23.818;2023-08-30T02:40:12;93207.72;;;15.63;100.00
40384;BME280;26097;42.366;23.818;2023-08-30T02:43:12;93200.22;;;15.51;100.00
40384;BME280;26097;42.366;23.818;2023-08-30T02:46:11;93188.41;;;15.55;100.00
40384;BME280;26097;42.366;23.818;2023-08-30T02:49:10;93184.41;;;15.68;100.00
40384;BME280;26097;42.366;23.818;2023-08-30T02:52:10;93177.50;;;15.75;100.00
40384;BME280;26097;42.366;23.818;2023-08-30T02:55:09;93169.22;;;15.87;100.00
40384;BME280;26097;42.366;23.818;2023-08-30T02:58:09;93178.38;;;15.99;100.00
40384;BME280;26097;42.366;23.818;2023-08-30T03:01:08;93170.81;;;16.04;100.00
40384;BME280;26097;42.366;23.818;2023-08-30T03:04:08;93173.63;;;16.03;100.00
40384;BME280;26097;42.366;23.818;2023-08-30T03:07:07;93185.78;;;16.04;100.00
40384;BME280;26097;42.366;23.818;2023-08-30T03:10:07;93184.28;;;16.01;100.00
40384;BME280;26097;42.366;23.818;2023-08-30T03:13:06;93189.19;;;16.12;100.00
40384;BME280;26097;42.366;23.818;2023-08-30T03:16:13;93194.53;;;16.51;100.00
40384;BME280;26097;42.366;23.818;2023-08-30T03:19:13;93197.72;;;16.38;100.00
40384;BME280;26097;42.366;23.818;2023-08-30T03:22:12;93200.91;;;16.25;100.00
40384;BME280;26097;42.366;23.818;2023-08-30T03:25:11;93201.56;;;16.27;100.00
40384;BME280;26097;42.366;23.818;2023-08-30T03:28:11;93210.00;;;16.14;100.00
40384;BME280;26097;42.366;23.818;2023-08-30T03:31:18;93210.56;;;16.01;100.00
40384;BME280;26097;42.366;23.818;2023-08-30T03:34:18;93205.81;;;16.05;100.00
40384;BME280;26097;42.366;23.818;2023-08-30T03:37:17;93208.88;;;16.08;100.00
40384;BME280;26097;42.366;23.818;2023-08-30T03:40:17;93206.78;;;16.35;100.00
40384;BME280;26097;42.366;23.818;2023-08-30T03:43:16;93204.84;;;16.29;100.00
40384;BME280;26097;42.366;23.818;2023-08-30T03:46:16;93205.34;;;16.56;100.00
40384;BME280;26097;42.366;23.818;2023-08-30T03:49:15;93209.13;;;16.77;100.00
40384;BME280;26097;42.366;23.818;2023-08-30T03:52:14;93207.78;;;16.81;100.00
40384;BME280;26097;42.366;23.818;2023-08-30T03:55:14;93195.81;;;17.02;100.00
40384;BME280;26097;42.366;23.818;2023-08-30T03:58:13;93199.19;;;17.10;100.00
40384;BME280;26097;42.366;23.818;2023-08-30T04:01:13;93201.81;;;17.10;100.00
40384;BME280;26097;42.366;23.818;2023-08-30T04:04:12;93199.34;;;17.09;100.00
40384;BME280;26097;42.366;23.818;2023-08-30T04:07:11;93201.56;;;17.20;100.00
40384;BME280;26097;42.366;23.818;2023-08-30T04:10:11;93193.94;;;17.25;100.00
40384;BME280;26097;42.366;23.818;2023-08-30T04:13:10;93195.56;;;17.26;100.00
40384;BME280;26097;42.366;23.818;2023-08-30T04:16:10;93203.78;;;17.32;100.00
40384;BME280;26097;42.366;23.818;2023-08-30T04:19:09;93212.66;;;17.31;100.00
40384;BME280;26097;42.366;23.818;2023-08-30T04:22:09;93224.91;;;17.23;100.00
40384;BME280;26097;42.366;23.818;2023-08-30T04:25:08;93226.66;;;17.08;100.00
40384;BME280;26097;42.366;23.818;2023-08-30T04:28:08;93234.34;;;16.94;100.00
40384;BME280;26097;42.366;23.818;2023-08-30T04:31:08;93228.84;;;16.81;100.00
40384;BME280;26097;42.366;23.818;2023-08-30T04:34:07;93236.81;;;16.73;100.00
40384;BME280;26097;42.366;23.818;2023-08-30T04:37:06;93229.16;;;16.63;100.00
40384;BME280;26097;42.366;23.818;2023-08-30T04:40:06;93231.66;;;16.56;100.00
40384;BME280;26097;42.366;23.818;2023-08-30T04:43:07;93228.72;;;16.51;100.00
40384;BME280;26097;42.366;23.818;2023-08-30T04:46:06;93225.63;;;16.47;100.00
40384;BME280;26097;42.366;23.818;2023-08-30T04:49:06;93237.66;;;16.41;100.00
40384;BME280;26097;42.366;23.818;2023-08-30T04:52:05;93246.88;;;16.37;100.00
40384;BME280;26097;42.366;23.818;2023-08-30T04:55:05;93253.91;;;16.45;100.00
40384;BME280;26097;42.366;23.818;2023-08-30T04:58:05;93261.50;;;16.63;100.00
40384;BME280;26097;42.366;23.818;2023-08-30T05:01:04;93267.91;;;16.92;100.00
40384;BME280;26097;42.366;23.818;2023-08-30T05:04:04;93253.88;;;17.23;100.00
40384;BME280;26097;42.366;23.818;2023-08-30T05:07:04;93259.38;;;17.67;100.00
40384;BME280;26097;42.366;23.818;2023-08-30T05:10:05;93260.88;;;18.15;100.00
40384;BME280;26097;42.366;23.818;2023-08-30T05:13:05;93271.41;;;18.66;100.00
40384;BME280;26097;42.366;23.818;2023-08-30T05:16:05;93274.44;;;19.00;100.00
40384;BME280;26097;42.366;23.818;2023-08-30T05:19:04;93272.75;;;19.14;100.00
40384;BME280;26097;42.366;23.818;2023-08-30T05:22:03;93260.66;;;19.05;100.00
40384;BME280;26097;42.366;23.818;2023-08-30T05:25:03;93265.88;;;18.98;100.00
40384;BME280;26097;42.366;23.818;2023-08-30T05:28:03;93267.41;;;19.07;100.00
40384;BME280;26097;42.366;23.818;2023-08-30T05:31:02;93275.63;;;19.19;100.00
40384;BME280;26097;42.366;23.818;2023-08-30T05:34:02;93286.41;;;19.18;100.00
40384;BME280;26097;42.366;23.818;2023-08-30T05:37:04;93291.03;;;19.16;100.00
40384;BME280;26097;42.366;23.818;2023-08-30T05:40:04;93292.00;;;19.08;100.00
40384;BME280;26097;42.366;23.818;2023-08-30T05:43:04;93288.19;;;18.95;100.00
40384;BME280;26097;42.366;23.818;2023-08-30T05:46:03;93281.50;;;18.78;100.00
40384;BME280;26097;42.366;23.818;2023-08-30T05:49:03;93279.50;;;18.43;100.00
40384;BME280;26097;42.366;23.818;2023-08-30T05:52:02;93282.69;;;18.38;100.00
40384;BME280;26097;42.366;23.818;2023-08-30T05:55:02;93293.94;;;18.47;100.00
40384;BME280;26097;42.366;23.818;2023-08-30T05:58:02;93294.28;;;18.59;100.00
40384;BME280;26097;42.366;23.818;2023-08-30T06:01:04;93288.78;;;18.76;100.00
40384;BME280;26097;42.366;23.818;2023-08-30T06:04:05;93283.06;;;18.94;100.00
40384;BME280;26097;42.366;23.818;2023-08-30T06:07:05;93271.72;;;18.93;100.00
40384;BME280;26097;42.366;23.818;2023-08-30T06:10:04;93274.63;;;18.98;100.00
40384;BME280;26097;42.366;23.818;2023-08-30T06:13:03;93274.06;;;19.03;100.00
40384;BME280;26097;42.366;23.818;2023-08-30T06:16:03;93278.13;;;19.06;100.00
40384;BME280;26097;42.366;23.818;2023-08-30T06:19:02;93275.25;;;19.22;100.00
40384;BME280;26097;42.366;23.818;2023-08-30T06:22:05;93276.19;;;19.36;100.00
40384;BME280;26097;42.366;23.818;2023-08-30T06:25:04;93281.34;;;19.45;100.00
40384;BME280;26097;42.366;23.818;2023-08-30T06:28:05;93289.66;;;19.70;100.00
40384;BME280;26097;42.366;23.818;2023-08-30T06:31:05;93293.41;;;19.82;100.00
40384;BME280;26097;42.366;23.818;2023-08-30T06:34:04;93293.13;;;19.99;100.00
40384;BME280;26097;42.366;23.818;2023-08-30T06:37:04;93295.47;;;20.16;100.00
40384;BME280;26097;42.366;23.818;2023-08-30T06:40:03;93294.31;;;20.25;100.00
40384;BME280;26097;42.366;23.818;2023-08-30T06:43:03;93288.44;;;20.36;100.00
40384;BME280;26097;42.366;23.818;2023-08-30T06:46:02;93288.25;;;20.38;100.00
40384;BME280;26097;42.366;23.818;2023-08-30T06:49:03;93298.19;;;20.29;100.00
40384;BME280;26097;42.366;23.818;2023-08-30T06:52:03;93298.81;;;20.31;100.00
40384;BME280;26097;42.366;23.818;2023-08-30T06:55:04;93285.28;;;20.54;100.00
40384;BME280;26097;42.366;23.818;2023-08-30T06:58:04;93273.72;;;20.76;100.00
40384;BME280;26097;42.366;23.818;2023-08-30T07:01:04;93267.03;;;20.80;100.00
40384;BME280;26097;42.366;23.818;2023-08-30T07:04:03;93282.19;;;21.13;100.00
40384;BME280;26097;42.366;23.818;2023-08-30T07:07:03;93295.91;;;21.44;100.00
40384;BME280;26097;42.366;23.818;2023-08-30T07:10:02;93289.56;;;21.38;100.00
40384;BME280;26097;42.366;23.818;2023-08-30T07:13:02;93285.31;;;21.57;100.00
40384;BME280;26097;42.366;23.818;2023-08-30T07:16:03;93283.28;;;21.66;100.00
40384;BME280;26097;42.366;23.818;2023-08-30T07:19:03;93291.63;;;21.76;100.00
40384;BME280;26097;42.366;23.818;2023-08-30T07:22:02;93279.38;;;21.95;100.00
40384;BME280;26097;42.366;23.818;2023-08-30T07:25:03;93282.63;;;22.04;100.00
40384;BME280;26097;42.366;23.818;2023-08-30T07:28:04;93274.16;;;22.34;100.00
40384;BME280;26097;42.366;23.818;2023-08-30T07:31:04;93280.91;;;22.50;100.00
40384;BME280;26097;42.366;23.818;2023-08-30T07:34:04;93278.59;;;22.67;100.00
40384;BME280;26097;42.366;23.818;2023-08-30T07:37:03;93281.19;;;22.81;100.00
40384;BME280;26097;42.366;23.818;2023-08-30T07:40:03;93284.34;;;22.96;100.00
40384;BME280;26097;42.366;23.818;2023-08-30T07:43:06;93273.25;;;23.06;100.00
40384;BME280;26097;42.366;23.818;2023-08-30T07:46:05;93283.94;;;23.00;100.00
40384;BME280;26097;42.366;23.818;2023-08-30T07:49:05;93280.25;;;23.01;100.00
40384;BME280;26097;42.366;23.818;2023-08-30T07:52:04;93274.06;;;23.14;100.00
40384;BME280;26097;42.366;23.818;2023-08-30T07:55:04;93280.25;;;23.39;100.00
40384;BME280;26097;42.366;23.818;2023-08-30T07:58:04;93279.16;;;23.47;100.00
40384;BME280;26097;42.366;23.818;2023-08-30T08:01:03;93285.19;;;23.61;100.00
40384;BME280;26097;42.366;23.818;2023-08-30T08:04:02;93277.06;;;23.81;100.00
40384;BME280;26097;42.366;23.818;2023-08-30T08:07:03;93280.91;;;23.86;100.00
40384;BME280;26097;42.366;23.818;2023-08-30T08:10:04;93289.13;;;23.77;98.86
40384;BME280;26097;42.366;23.818;2023-08-30T08:13:04;93283.13;;;23.89;98.56
40384;BME280;26097;42.366;23.818;2023-08-30T08:16:03;93284.81;;;24.08;97.98
40384;BME280;26097;42.366;23.818;2023-08-30T08:19:03;93279.63;;;24.32;94.50
40384;BME280;26097;42.366;23.818;2023-08-30T08:22:02;93275.66;;;24.60;97.07
40384;BME280;26097;42.366;23.818;2023-08-30T08:25:02;93277.78;;;24.70;96.42
40384;BME280;26097;42.366;23.818;2023-08-30T08:28:02;93278.75;;;24.76;95.24
40384;BME280;26097;42.366;23.818;2023-08-30T08:31:04;93265.69;;;25.05;95.22
40384;BME280;26097;42.366;23.818;2023-08-30T08:34:11;93274.31;;;25.31;91.91
40384;BME280;26097;42.366;23.818;2023-08-30T08:37:11;93268.72;;;25.51;92.69
40384;BME280;26097;42.366;23.818;2023-08-30T08:40:10;93271.25;;;25.46;86.59
40384;BME280;26097;42.366;23.818;2023-08-30T08:43:10;93262.63;;;25.44;88.46
40384;BME280;26097;42.366;23.818;2023-08-30T08:46:13;93259.25;;;25.79;87.65
40384;BME280;26097;42.366;23.818;2023-08-30T08:49:16;93264.00;;;26.13;81.84
40384;BME280;26097;42.366;23.818;2023-08-30T08:52:16;93262.84;;;26.08;80.83
40384;BME280;26097;42.366;23.818;2023-08-30T08:55:16;93272.47;;;26.33;78.39
40384;BME280;26097;42.366;23.818;2023-08-30T08:58:16;93267.50;;;26.25;75.91
40384;BME280;26097;42.366;23.818;2023-08-30T09:01:16;93266.22;;;26.28;76.85
40384;BME280;26097;42.366;23.818;2023-08-30T09:04:16;93262.06;;;26.20;74.36
40384;BME280;26097;42.366;23.818;2023-08-30T09:07:16;93264.16;;;26.71;73.76
40384;BME280;26097;42.366;23.818;2023-08-30T09:10:16;93263.34;;;26.70;72.38
40384;BME280;26097;42.366;23.818;2023-08-30T09:13:16;93252.84;;;26.40;73.01
40384;BME280;26097;42.366;23.818;2023-08-30T09:16:15;93251.94;;;25.98;75.82
40384;BME280;26097;42.366;23.818;2023-08-30T09:19:20;93250.31;;;25.97;74.50
40384;BME280;26097;42.366;23.818;2023-08-30T09:22:19;93253.19;;;26.43;70.83
40384;BME280;26097;42.366;23.818;2023-08-30T09:25:28;93251.97;;;27.04;69.73
40384;BME280;26097;42.366;23.818;2023-08-30T09:28:29;93248.59;;;27.08;66.66
40384;BME280;26097;42.366;23.818;2023-08-30T09:31:38;93237.13;;;26.96;67.05
40384;BME280;26097;42.366;23.818;2023-08-30T09:34:45;93236.13;;;26.44;68.53
40384;BME280;26097;42.366;23.818;2023-08-30T09:37:45;93240.16;;;26.47;68.23
40384;BME280;26097;42.366;23.818;2023-08-30T09:40:45;93236.81;;;26.40;68.73
40384;BME280;26097;42.366;23.818;2023-08-30T09:43:45;93249.94;;;26.41;67.54
40384;BME280;26097;42.366;23.818;2023-08-30T09:46:50;93246.78;;;26.56;66.66
40384;BME280;26097;42.366;23.818;2023-08-30T09:49:51;93244.75;;;26.22;66.97
40384;BME280;26097;42.366;23.818;2023-08-30T09:52:53;93248.22;;;26.23;67.64
40384;BME280;26097;42.366;23.818;2023-08-30T09:55:53;93234.72;;;26.42;67.76
40384;BME280;26097;42.366;23.818;2023-08-30T09:58:53;93240.25;;;26.52;67.20
40384;BME280;26097;42.366;23.818;2023-08-30T10:01:53;93243.56;;;26.30;65.58
40384;BME280;26097;42.366;23.818;2023-08-30T10:04:53;93237.84;;;26.50;67.14
40384;BME280;26097;42.366;23.818;2023-08-30T10:07:54;93230.56;;;26.34;65.34
40384;BME280;26097;42.366;23.818;2023-08-30T10:10:53;93239.97;;;26.01;65.65
40384;BME280;26097;42.366;23.818;2023-08-30T10:13:54;93239.84;;;26.31;65.30
40384;BME280;26097;42.366;23.818;2023-08-30T10:17:02;93228.72;;;26.34;64.60
40384;BME280;26097;42.366;23.818;2023-08-30T10:20:05;93236.56;;;26.53;65.38
40384;BME280;26097;42.366;23.818;2023-08-30T10:23:06;93224.25;;;27.90;60.72
40384;BME280;26097;42.366;23.818;2023-08-30T10:26:06;93225.28;;;28.46;57.06
40384;BME280;26097;42.366;23.818;2023-08-30T10:29:06;93218.34;;;28.95;55.10
40384;BME280;26097;42.366;23.818;2023-08-30T10:32:08;93218.09;;;28.29;55.72
40384;BME280;26097;42.366;23.818;2023-08-30T10:35:14;93233.97;;;27.97;56.97
40384;BME280;26097;42.366;23.818;2023-08-30T10:38:24;93223.16;;;28.08;53.64
40384;BME280;26097;42.366;23.818;2023-08-30T10:41:25;93215.97;;;28.76;52.86
40384;BME280;26097;42.366;23.818;2023-08-30T10:44:25;93211.06;;;29.17;52.81
40384;BME280;26097;42.366;23.818;2023-08-30T10:47:27;93224.00;;;29.26;50.84
40384;BME280;26097;42.366;23.818;2023-08-30T10:50:31;93226.56;;;28.83;52.60
40384;BME280;26097;42.366;23.818;2023-08-30T10:53:31;93223.28;;;28.58;53.10
40384;BME280;26097;42.366;23.818;2023-08-30T10:56:31;93218.09;;;28.29;53.94
40384;BME280;26097;42.366;23.818;2023-08-30T10:59:32;93226.03;;;28.63;53.31
40384;BME280;26097;42.366;23.818;2023-08-30T11:02:35;93219.13;;;28.06;53.79
40384;BME280;26097;42.366;23.818;2023-08-30T11:05:34;93220.13;;;27.83;53.02
40384;BME280;26097;42.366;23.818;2023-08-30T11:08:35;93208.75;;;27.24;54.92
40384;BME280;26097;42.366;23.818;2023-08-30T11:11:37;93205.50;;;27.90;52.92
40384;BME280;26097;42.366;23.818;2023-08-30T11:14:40;93216.03;;;27.97;53.11
40384;BME280;26097;42.366;23.818;2023-08-30T11:17:39;93217.63;;;28.32;52.07
40384;BME280;26097;42.366;23.818;2023-08-30T11:20:39;93213.72;;;28.68;50.39
40384;BME280;26097;42.366;23.818;2023-08-30T11:23:39;93204.22;;;27.93;51.28
40384;BME280;26097;42.366;23.818;2023-08-30T11:26:38;93210.13;;;27.44;52.38
40384;BME280;26097;42.366;23.818;2023-08-30T11:29:39;93212.78;;;27.27;53.98
40384;BME280;26097;42.366;23.818;2023-08-30T11:32:40;93203.06;;;27.20;54.02
40384;BME280;26097;42.366;23.818;2023-08-30T11:35:42;93209.44;;;28.22;52.28
40384;BME280;26097;42.366;23.818;2023-08-30T11:38:41;93207.13;;;29.25;49.77
40384;BME280;26097;42.366;23.818;2023-08-30T11:41:41;93202.63;;;29.36;48.72
40384;BME280;26097;42.366;23.818;2023-08-30T11:44:41;93198.66;;;29.71;48.62
40384;BME280;26097;42.366;23.818;2023-08-30T11:47:40;93184.03;;;28.97;50.39
40384;BME280;26097;42.366;23.818;2023-08-30T11:50:40;93192.06;;;28.47;50.81
40384;BME280;26097;42.366;23.818;2023-08-30T11:53:41;93185.16;;;28.29;51.99
40384;BME280;26097;42.366;23.818;2023-08-30T11:56:41;93189.75;;;27.94;50.89
40384;BME280;26097;42.366;23.818;2023-08-30T11:59:41;93193.03;;;27.62;52.61
40384;BME280;26097;42.366;23.818;2023-08-30T12:02:41;93203.81;;;27.33;52.23
40384;BME280;26097;42.366;23.818;2023-08-30T12:05:47;93204.69;;;27.21;52.28
40384;BME280;26097;42.366;23.818;2023-08-30T12:08:47;93200.53;;;27.31;52.41
40384;BME280;26097;42.366;23.818;2023-08-30T12:11:50;93200.16;;;27.39;53.12
40384;BME280;26097;42.366;23.818;2023-08-30T12:14:56;93197.88;;;27.31;52.52
40384;BME280;26097;42.366;23.818;2023-08-30T12:17:56;93195.69;;;27.96;49.88
40384;BME280;26097;42.366;23.818;2023-08-30T12:20:58;93195.22;;;28.66;49.69
40384;BME280;26097;42.366;23.818;2023-08-30T12:24:00;93199.09;;;29.30;46.72
40384;BME280;26097;42.366;23.818;2023-08-30T12:27:03;93175.81;;;29.74;46.28
40384;BME280;26097;42.366;23.818;2023-08-30T12:30:03;93189.41;;;29.57;45.39
40384;BME280;26097;42.366;23.818;2023-08-30T12:33:03;93186.03;;;29.39;44.36
40384;BME280;26097;42.366;23.818;2023-08-30T12:36:03;93174.56;;;28.17;47.35
40384;BME280;26097;42.366;23.818;2023-08-30T12:39:03;93174.47;;;28.12;48.01
40384;BME280;26097;42.366;23.818;2023-08-30T12:42:03;93171.00;;;28.33;46.47
40384;BME280;26097;42.366;23.818;2023-08-30T12:45:03;93172.06;;;29.04;44.98
40384;BME280;26097;42.366;23.818;2023-08-30T12:48:03;93170.84;;;29.22;45.57
40384;BME280;26097;42.366;23.818;2023-08-30T12:51:03;93168.81;;;29.35;44.30
40384;BME280;26097;42.366;23.818;2023-08-30T12:54:02;93168.00;;;29.67;44.37
40384;BME280;26097;42.366;23.818;2023-08-30T12:57:02;93163.31;;;29.90;43.32
40384;BME280;26097;42.366;23.818;2023-08-30T13:00:04;93172.63;;;30.20;43.27
40384;BME280;26097;42.366;23.818;2023-08-30T13:03:04;93169.09;;;30.83;42.44
40384;BME280;26097;42.366;23.818;2023-08-30T13:06:03;93169.00;;;30.47;41.24
40384;BME280;26097;42.366;23.818;2023-08-30T13:09:03;93161.53;;;30.64;41.65
40384;BME280;26097;42.366;23.818;2023-08-30T13:12:03;93169.00;;;30.52;40.91
40384;BME280;26097;42.366;23.818;2023-08-30T13:15:06;93166.66;;;28.99;42.69
40384;BME280;26097;42.366;23.818;2023-08-30T13:18:06;93165.28;;;28.74;45.05
40384;BME280;26097;42.366;23.818;2023-08-30T13:21:06;93177.97;;;30.15;42.82
40384;BME280;26097;42.366;23.818;2023-08-30T13:24:05;93178.38;;;29.96;40.78
40384;BME280;26097;42.366;23.818;2023-08-30T13:27:05;93166.50;;;28.61;44.53
40384;BME280;26097;42.366;23.818;2023-08-30T13:30:05;93160.91;;;28.18;44.74
40384;BME280;26097;42.366;23.818;2023-08-30T13:33:05;93162.97;;;27.94;45.73
40384;BME280;26097;42.366;23.818;2023-08-30T13:36:04;93160.06;;;28.62;44.17
40384;BME280;26097;42.366;23.818;2023-08-30T13:39:04;93170.75;;;28.35;45.01
40384;BME280;26097;42.366;23.818;2023-08-30T13:42:04;93162.53;;;28.02;45.71
40384;BME280;26097;42.366;23.818;2023-08-30T13:45:04;93159.88;;;28.91;44.46
40384;BME280;26097;42.366;23.818;2023-08-30T13:48:05;93167.31;;;29.87;42.93
40384;BME280;26097;42.366;23.818;2023-08-30T13:51:04;93164.50;;;29.67;42.18
40384;BME280;26097;42.366;23.818;2023-08-30T13:54:04;93155.22;;;28.59;43.81
40384;BME280;26097;42.366;23.818;2023-08-30T13:57:04;93166.50;;;29.16;43.07
40384;BME280;26097;42.366;23.818;2023-08-30T14:00:04;93164.69;;;29.49;42.43
40384;BME280;26097;42.366;23.818;2023-08-30T14:03:07;93168.94;;;30.42;41.96
40384;BME280;26097;42.366;23.818;2023-08-30T14:06:07;93160.66;;;29.95;40.76
40384;BME280;26097;42.366;23.818;2023-08-30T14:09:07;93159.81;;;30.43;41.40
40384;BME280;26097;42.366;23.818;2023-08-30T14:12:07;93164.59;;;30.25;40.98
40384;BME280;26097;42.366;23.818;2023-08-30T14:15:07;93152.97;;;30.83;40.69
40384;BME280;26097;42.366;23.818;2023-08-30T14:18:06;93156.75;;;30.92;40.01
40384;BME280;26097;42.366;23.818;2023-08-30T14:21:06;93151.38;;;30.87;39.98
40384;BME280;26097;42.366;23.818;2023-08-30T14:24:06;93152.19;;;31.14;40.02
40384;BME280;26097;42.366;23.818;2023-08-30T14:27:05;93152.53;;;31.28;39.93
40384;BME280;26097;42.366;23.818;2023-08-30T14:30:06;93153.81;;;31.04;39.25
40384;BME280;26097;42.366;23.818;2023-08-30T14:33:05;93156.72;;;30.82;40.08
40384;BME280;26097;42.366;23.818;2023-08-30T14:36:11;93156.72;;;30.82;39.07
40384;BME280;26097;42.366;23.818;2023-08-30T14:39:10;93166.16;;;30.16;40.24
40384;BME280;26097;42.366;23.818;2023-08-30T14:42:09;93158.38;;;29.71;40.57
40384;BME280;26097;42.366;23.818;2023-08-30T14:45:09;93166.75;;;29.15;41.00
40384;BME280;26097;42.366;23.818;2023-08-30T14:48:08;93173.13;;;29.03;40.81
40384;BME280;26097;42.366;23.818;2023-08-30T14:51:08;93175.50;;;28.50;41.81
40384;BME280;26097;42.366;23.818;2023-08-30T14:54:07;93174.19;;;28.30;43.14
40384;BME280;26097;42.366;23.818;2023-08-30T14:57:07;93171.97;;;27.88;43.86
40384;BME280;26097;42.366;23.818;2023-08-30T15:00:07;93166.78;;;27.59;44.51
40384;BME280;26097;42.366;23.818;2023-08-30T15:03:07;93173.63;;;27.37;44.15
40384;BME280;26097;42.366;23.818;2023-08-30T15:06:06;93166.91;;;27.01;44.71
40384;BME280;26097;42.366;23.818;2023-08-30T15:09:06;93178.00;;;26.92;45.74
40384;BME280;26097;42.366;23.818;2023-08-30T15:12:05;93171.19;;;26.73;46.02
40384;BME280;26097;42.366;23.818;2023-08-30T15:15:05;93173.19;;;26.65;46.60
40384;BME280;26097;42.366;23.818;2023-08-30T15:18:05;93179.41;;;26.42;47.23
40384;BME280;26097;42.366;23.818;2023-08-30T15:21:04;93188.53;;;26.29;47.76
40384;BME280;26097;42.366;23.818;2023-08-30T15:24:04;93179.75;;;26.17;48.29
40384;BME280;26097;42.366;23.818;2023-08-30T15:27:04;93187.59;;;26.12;48.25
40384;BME280;26097;42.366;23.818;2023-08-30T15:30:04;93190.66;;;26.03;48.73
40384;BME280;26097;42.366;23.818;2023-08-30T15:33:05;93193.06;;;25.93;49.63
40384;BME280;26097;42.366;23.818;2023-08-30T15:36:06;93192.06;;;25.70;50.84
40384;BME280;26097;42.366;23.818;2023-08-30T15:39:06;93202.97;;;25.57;51.18
40384;BME280;26097;42.366;23.818;2023-08-30T15:42:08;93200.56;;;25.24;53.49